Time;durP1;ratioP1;P1;durP2;ratioP2;P2;SDS_P1;SDS_P2;PMS_P1;PMS_P2;Temp;Humidity;BMP_temperature;BMP_pressure;BME280_temperature;BME280_humidity;BME280_pressure;Samples;Min_cycle;Max_cycle;Signal;HPM_P1;HPM_P2
2023/05/03 00:00:19;;;;;;;;;;;;;;;20.86;51.26;102197.75;5005986;28;4036;-74
2023/05/03 00:02:46;;;;;;;;;;;;;;;20.85;51.09;102204.16;5017232;28;4170;-74
2023/05/03 00:05:13;;;;;;;;;;;;;;;20.85;51.13;102202.00;5013780;28;4203;-74
2023/05/03 00:07:41;;;;;;;;;;;;;;;20.84;51.34;102200.50;5013978;28;4080;-74
2023/05/03 00:10:08;;;;;;;;;;;;;;;20.84;51.13;102203.38;5008712;28;4054;-75
2023/05/03 00:12:34;;;;;;;;;;;;;;;20.84;51.18;102211.25;5012794;28;4230;-73
2023/05/03 00:15:01;;;;;;;;;;;;;;;20.83;51.13;102207.63;5015995;28;4291;-74
2023/05/03 00:17:27;;;;;;;;;;;;;;;20.83;51.06;102213.38;5013606;28;4069;-75
2023/05/03 00:19:55;;;;;;;;;;;;;;;20.82;51.10;102209.03;5010383;28;3961;-74
2023/05/03 00:22:21;;;;;;;;;;;;;;;20.82;51.13;102211.91;5008381;28;4195;-75
2023/05/03 00:24:49;;;;;;;;;;;;;;;20.81;50.84;102213.25;5013187;28;3894;-74
2023/05/03 00:27:16;;;;;;;;;;;;;;;20.81;50.87;102210.38;5013302;28;3973;-75
2023/05/03 00:29:42;;;;;;;;;;;;;;;20.80;50.97;102208.88;5012586;28;4096;-74
2023/05/03 00:32:09;;;;;;;;;;;;;;;20.81;50.81;102207.50;5015483;28;4090;-74
2023/05/03 00:34:36;;;;;;;;;;;;;;;20.80;51.01;102211.75;5012829;28;4066;-75
2023/05/03 00:37:02;;;;;;;;;;;;;;;20.80;50.93;102216.75;5009232;28;3899;-75
2023/05/03 00:39:30;;;;;;;;;;;;;;;20.78;50.86;102214.50;4996761;28;5420;-74
2023/05/03 00:41:57;;;;;;;;;;;;;;;20.79;50.74;102216.00;5012312;28;3957;-74
2023/05/03 00:44:24;;;;;;;;;;;;;;;20.77;50.68;102207.22;5006839;28;4099;-74
2023/05/03 00:46:50;;;;;;;;;;;;;;;20.76;50.90;102205.72;5007917;28;4079;-74
2023/05/03 00:49:17;;;;;;;;;;;;;;;20.77;50.94;102207.22;5012352;28;3921;-74
2023/05/03 00:51:43;;;;;;;;;;;;;;;20.76;50.82;102217.25;5010219;28;4041;-73
2023/05/03 00:54:10;;;;;;;;;;;;;;;20.76;50.77;102211.47;5012583;28;4390;-74
2023/05/03 00:56:36;;;;;;;;;;;;;;;20.75;50.72;102209.97;5007476;28;4259;-74
2023/05/03 00:59:16;;;;;;;;;;;;;;;20.75;50.89;102209.97;5016193;28;4168;-74
2023/05/03 01:01:44;;;;;;;;;;;;;;;20.75;51.01;102215.72;5012078;28;4074;-74
2023/05/03 01:04:11;;;;;;;;;;;;;;;20.74;50.95;102214.22;5011624;28;4037;-74
2023/05/03 01:06:37;;;;;;;;;;;;;;;20.73;50.83;102206.97;5016450;28;3924;-74
2023/05/03 01:09:21;;;;;;;;;;;;;;;20.74;50.72;102214.22;5038719;28;4094;-74
2023/05/03 01:12:07;;;;;;;;;;;;;;;20.71;50.53;102204.72;5010019;28;3987;-74
2023/05/03 01:14:52;;;;;;;;;;;;;;;20.72;50.71;102211.22;4996114;28;4863;-74
2023/05/03 01:17:18;;;;;;;;;;;;;;;20.70;50.78;102206.06;5009624;28;4130;-74
2023/05/03 01:19:49;;;;;;;;;;;;;;;20.71;50.55;102203.97;5013640;28;4032;-74
2023/05/03 01:22:34;;;;;;;;;;;;;;;20.70;50.48;102219.72;5012305;28;4136;-74
2023/05/03 01:25:06;;;;;;;;;;;;;;;20.70;50.64;102213.94;5012863;28;3964;-74
2023/05/03 01:27:33;;;;;;;;;;;;;;;20.69;50.71;102212.47;5015995;28;3990;-74
2023/05/03 01:29:59;;;;;;;;;;;;;;;20.68;50.65;102217.47;5007396;28;4131;-74
2023/05/03 01:32:29;;;;;;;;;;;;;;;20.68;50.61;102210.94;5019074;28;4044;-74
2023/05/03 01:35:19;;;;;;;;;;;;;;;20.67;50.61;102220.94;5009982;28;4138;-74
2023/05/03 01:37:46;;;;;;;;;;;;;;;20.67;50.68;102212.31;4993686;28;4298;-74
2023/05/03 01:40:15;;;;;;;;;;;;;;;20.66;50.55;102219.44;4998452;28;4042;-74
2023/05/03 01:42:42;;;;;;;;;;;;;;;20.66;50.58;102219.44;5014302;28;4232;-74
2023/05/03 01:45:08;;;;;;;;;;;;;;;20.66;50.65;102222.31;5013131;28;3897;-74
2023/05/03 01:47:35;;;;;;;;;;;;;;;20.65;50.50;102223.69;4997497;28;4861;-74
2023/05/03 01:50:01;;;;;;;;;;;;;;;20.64;50.42;102210.69;5010691;28;4129;-74
2023/05/03 01:52:29;;;;;;;;;;;;;;;20.65;50.56;102215.06;5030348;28;5300;-74
2023/05/03 01:54:55;;;;;;;;;;;;;;;20.66;50.33;102219.44;5014418;28;3947;-74
2023/05/03 01:57:22;;;;;;;;;;;;;;;20.65;50.53;102217.94;5008261;28;4051;-74
2023/05/03 01:59:48;;;;;;;;;;;;;;;20.65;50.52;102217.94;5012272;28;4067;-73
2023/05/03 02:02:15;;;;;;;;;;;;;;;20.65;50.44;102220.81;5013022;28;4050;-74
2023/05/03 02:04:41;;;;;;;;;;;;;;;20.63;50.43;102209.91;5017387;28;4134;-74
2023/05/03 02:07:08;;;;;;;;;;;;;;;20.63;50.32;102221.41;5010935;28;3938;-74
2023/05/03 02:09:34;;;;;;;;;;;;;;;20.63;50.17;102220.69;5010443;28;4055;-74
2023/05/03 02:12:01;;;;;;;;;;;;;;;20.62;50.52;102219.19;5009905;28;3942;-74
2023/05/03 02:14:27;;;;;;;;;;;;;;;20.62;50.32;102222.06;5001045;28;4183;-75
2023/05/03 02:16:54;;;;;;;;;;;;;;;20.60;50.18;102221.91;5015759;28;4209;-74
2023/05/03 02:19:21;;;;;;;;;;;;;;;20.59;50.45;102220.41;5006982;28;5328;-75
2023/05/03 02:21:47;;;;;;;;;;;;;;;20.58;50.47;102231.16;5015326;28;4139;-75
2023/05/03 02:24:15;;;;;;;;;;;;;;;20.58;50.41;102231.16;5014014;28;4036;-74
2023/05/03 02:26:41;;;;;;;;;;;;;;;20.58;50.28;102231.16;5013845;28;4087;-75
2023/05/03 02:29:08;;;;;;;;;;;;;;;20.56;50.41;102228.16;5009895;28;4091;-74
2023/05/03 02:31:35;;;;;;;;;;;;;;;20.57;50.29;102243.28;5030232;28;4008;-75
2023/05/03 02:34:02;;;;;;;;;;;;;;;20.56;50.58;102241.75;5017096;28;4094;-74
2023/05/03 02:36:28;;;;;;;;;;;;;;;20.55;50.47;102243.13;5008843;28;5697;-74
2023/05/03 02:38:55;;;;;;;;;;;;;;;20.55;50.43;102237.34;5010647;28;3949;-74
2023/05/03 02:41:22;;;;;;;;;;;;;;;20.55;50.41;102243.13;5013657;28;4028;-74
2023/05/03 02:43:49;;;;;;;;;;;;;;;20.55;50.28;102240.25;4981999;28;4017;-74
2023/05/03 02:46:16;;;;;;;;;;;;;;;20.54;50.21;102238.75;4999915;28;4095;-74
2023/05/03 02:48:43;;;;;;;;;;;;;;;20.55;50.24;102248.88;5013060;28;4115;-74
2023/05/03 02:51:10;;;;;;;;;;;;;;;20.57;50.23;102246.16;5013971;28;5158;-75
2023/05/03 02:53:36;;;;;;;;;;;;;;;20.59;50.41;102254.94;5014583;28;4116;-74
2023/05/03 02:56:03;;;;;;;;;;;;;;;20.60;50.73;102256.47;5011563;28;4020;-74
2023/05/03 02:58:29;;;;;;;;;;;;;;;20.61;50.95;102260.84;5018864;28;4067;-74
2023/05/03 03:00:57;;;;;;;;;;;;;;;20.63;51.02;102261.72;5012108;28;4062;-74
2023/05/03 03:03:27;;;;;;;;;;;;;;;20.64;51.29;102259.63;5018219;28;4081;-75
2023/05/03 03:05:54;;;;;;;;;;;;;;;20.64;51.09;102263.25;5028341;28;4036;-74
2023/05/03 03:08:21;;;;;;;;;;;;;;;20.64;51.08;102268.25;5008088;28;4146;-74
2023/05/03 03:10:48;;;;;;;;;;;;;;;20.63;51.25;102260.97;4993507;28;4293;-74
2023/05/03 03:13:15;;;;;;;;;;;;;;;20.65;51.37;102266.88;5011910;28;4169;-74
2023/05/03 03:15:41;;;;;;;;;;;;;;;20.63;51.25;102267.47;5010888;28;4046;-74
2023/05/03 03:18:08;;;;;;;;;;;;;;;20.65;51.52;102269.75;5013440;28;3970;-74
2023/05/03 03:20:34;;;;;;;;;;;;;;;20.66;51.40;102257.63;5011518;28;4102;-74
2023/05/03 03:23:01;;;;;;;;;;;;;;;20.66;51.29;102263.38;5016062;28;4193;-75
2023/05/03 03:25:28;;;;;;;;;;;;;;;20.69;51.53;102264.28;5014949;28;4176;-74
2023/05/03 03:27:56;;;;;;;;;;;;;;;20.70;51.36;102277.28;5009631;28;4215;-75
2023/05/03 03:30:23;;;;;;;;;;;;;;;20.70;51.36;102277.28;5014914;28;4068;-75
2023/05/03 03:33:02;;;;;;;;;;;;;;;20.70;51.33;102277.28;5017929;28;4123;-75
2023/05/03 03:35:35;;;;;;;;;;;;;;;20.70;51.53;102277.28;5006280;28;4028;-75
2023/05/03 03:38:03;;;;;;;;;;;;;;;20.71;51.57;102273.03;5016573;28;3911;-75
2023/05/03 03:40:29;;;;;;;;;;;;;;;20.70;51.45;102278.03;5010500;28;4248;-75
2023/05/03 03:42:56;;;;;;;;;;;;;;;20.69;51.63;102275.78;5005811;28;3961;-75
2023/05/03 03:45:23;;;;;;;;;;;;;;;20.70;51.59;102280.16;5009983;28;3949;-75
2023/05/03 03:47:50;;;;;;;;;;;;;;;20.71;51.51;102287.44;5017458;28;4351;-75
2023/05/03 03:50:20;;;;;;;;;;;;;;;20.71;51.35;102279.56;5023951;28;4077;-75
2023/05/03 03:52:47;;;;;;;;;;;;;;;20.73;51.64;102292.56;5009102;28;4051;-75
2023/05/03 03:55:14;;;;;;;;;;;;;;;20.75;51.35;102292.69;5026895;28;4086;-74
2023/05/03 03:57:41;;;;;;;;;;;;;;;20.75;51.50;102290.56;5011093;28;4173;-75
2023/05/03 04:00:09;;;;;;;;;;;;;;;20.75;51.46;102293.44;5013738;28;4268;-74
2023/05/03 04:02:37;;;;;;;;;;;;;;;20.74;51.57;102300.59;5012524;28;4200;-75
2023/05/03 04:05:08;;;;;;;;;;;;;;;20.73;51.37;102293.34;5010741;28;4088;-74
2023/05/03 04:07:35;;;;;;;;;;;;;;;20.73;51.49;102293.34;5016471;28;4086;-74
2023/05/03 04:10:02;;;;;;;;;;;;;;;20.74;51.46;102300.59;5010615;28;4141;-75
2023/05/03 04:12:29;;;;;;;;;;;;;;;20.72;51.48;102297.56;4987975;28;4276;-75
2023/05/03 04:14:56;;;;;;;;;;;;;;;20.73;51.46;102299.09;5016182;28;4376;-75
2023/05/03 04:17:22;;;;;;;;;;;;;;;20.74;51.51;102300.59;5024809;28;4316;-75
2023/05/03 04:19:50;;;;;;;;;;;;;;;20.75;51.71;102307.84;5015602;28;3971;-75
2023/05/03 04:22:16;;;;;;;;;;;;;;;20.76;51.42;102312.25;5012502;28;5038;-75
2023/05/03 04:24:44;;;;;;;;;;;;;;;20.77;51.33;102316.63;5008041;28;4116;-75
2023/05/03 04:27:13;;;;;;;;;;;;;;;20.77;51.20;102328.13;5011174;28;4084;-75
2023/05/03 04:29:40;;;;;;;;;;;;;;;20.76;51.27;102323.75;5017733;28;4136;-75
2023/05/03 04:32:07;;;;;;;;;;;;;;;20.78;51.34;102329.66;5002968;28;3934;-74
2023/05/03 04:34:34;;;;;;;;;;;;;;;20.77;51.35;102327.38;5011725;28;4122;-75
2023/05/03 04:37:03;;;;;;;;;;;;;;;20.77;51.52;102321.63;5007552;28;4053;-74
2023/05/03 04:39:31;;;;;;;;;;;;;;;20.76;51.36;102337.41;5008880;28;5065;-75
2023/05/03 04:41:57;;;;;;;;;;;;;;;20.77;51.37;102333.91;5021930;28;4062;-75
2023/05/03 04:44:24;;;;;;;;;;;;;;;20.76;51.40;102338.16;5012660;28;5183;-75
2023/05/03 04:46:52;;;;;;;;;;;;;;;20.78;51.42;102343.31;5014354;28;3937;-75
2023/05/03 04:49:18;;;;;;;;;;;;;;;20.78;51.37;102340.44;5015237;28;4040;-74
2023/05/03 04:51:45;;;;;;;;;;;;;;;20.79;51.25;102347.69;5025568;28;4123;-74
2023/05/03 04:54:12;;;;;;;;;;;;;;;20.79;51.73;102342.66;4997421;28;3890;-75
2023/05/03 04:56:38;;;;;;;;;;;;;;;20.79;51.58;102348.44;5012988;28;4149;-75
2023/05/03 04:59:11;;;;;;;;;;;;;;;20.81;51.38;102344.94;5003726;28;4114;-74
2023/05/03 05:01:38;;;;;;;;;;;;;;;20.80;51.49;102347.06;5019640;28;4082;-74
2023/05/03 05:04:06;;;;;;;;;;;;;;;19.88;45.49;102341.41;5002129;28;4489;-72
2023/05/03 05:06:38;;;;;;;;;;;;;;;20.07;46.99;102339.84;5002319;28;4207;-71
2023/05/03 05:09:06;;;;;;;;;;;;;;;20.30;47.08;102351.53;5011163;28;4157;-78
2023/05/03 05:11:33;;;;;;;;;;;;;;;20.27;46.30;102346.25;5012439;28;4016;-68
2023/05/03 05:13:59;;;;;;;;;;;;;;;20.40;47.58;102342.88;5041798;28;3984;-73
2023/05/03 05:16:26;;;;;;;;;;;;;;;20.54;48.27;102343.09;5009848;28;4059;-73
2023/05/03 05:18:52;;;;;;;;;;;;;;;20.63;47.77;102353.06;5018009;28;4016;-72
2023/05/03 05:21:22;;;;;;;;;;;;;;;20.69;48.32;102347.75;5016489;28;4073;-73
2023/05/03 05:23:49;;;;;;;;;;;;;;;20.73;48.90;102350.91;5015509;28;4137;-72
2023/05/03 05:26:15;;;;;;;;;;;;;;;20.77;49.17;102351.16;5017303;28;4011;-72
2023/05/03 05:28:42;;;;;;;;;;;;;;;20.80;49.55;102346.28;5023718;28;4155;-72
2023/05/03 05:31:08;;;;;;;;;;;;;;;20.80;49.20;102361.47;5017928;28;4113;-72
2023/05/03 05:33:35;;;;;;;;;;;;;;;20.81;50.01;102356.47;5019010;28;4108;-73
2023/05/03 05:36:03;;;;;;;;;;;;;;;20.80;50.11;102366.44;5010826;28;3993;-72
2023/05/03 05:38:31;;;;;;;;;;;;;;;20.80;49.74;102370.09;5011225;28;4200;-72
2023/05/03 05:40:58;;;;;;;;;;;;;;;20.80;50.18;102370.09;5015320;28;3983;-71
2023/05/03 05:43:25;;;;;;;;;;;;;;;20.81;49.83;102362.22;5011387;28;3912;-72
2023/05/03 05:45:52;;;;;;;;;;;;;;;20.82;50.08;102367.38;5009757;28;4084;-72
2023/05/03 05:48:19;;;;;;;;;;;;;;;20.82;50.12;102369.47;5012155;28;4770;-71
2023/05/03 05:50:46;;;;;;;;;;;;;;;20.84;49.42;102372.50;5015029;28;4146;-71
2023/05/03 05:53:14;;;;;;;;;;;;;;;20.85;49.68;102369.00;5017176;28;4078;-72
2023/05/03 05:55:47;;;;;;;;;;;;;;;20.86;49.72;102375.50;5001416;28;4014;-72
2023/05/03 05:58:13;;;;;;;;;;;;;;;20.88;49.86;102375.66;5018177;28;4022;-72
2023/05/03 06:00:49;;;;;;;;;;;;;;;20.89;50.07;102380.81;5013377;28;4124;-72
2023/05/03 06:03:16;;;;;;;;;;;;;;;20.89;50.38;102386.56;5010756;28;4179;-72
2023/05/03 06:05:44;;;;;;;;;;;;;;;20.89;50.31;102386.56;5015583;28;4114;-72
2023/05/03 06:08:11;;;;;;;;;;;;;;;20.90;50.17;102384.44;5014390;28;4088;-72
2023/05/03 06:10:38;;;;;;;;;;;;;;;20.89;50.29;102385.78;5029157;28;4820;-72
2023/05/03 06:13:05;;;;;;;;;;;;;;;20.82;48.43;102381.78;5018763;28;3997;-71
2023/05/03 06:15:32;;;;;;;;;;;;;;;20.51;47.33;102391.13;5020490;28;4290;-72
2023/05/03 06:17:59;;;;;;;;;;;;;;;20.43;46.26;102389.78;5016698;28;4017;-72
2023/05/03 06:20:25;;;;;;;;;;;;;;;20.26;45.32;102396.53;5017207;28;4062;-72
2023/05/03 06:22:53;;;;;;;;;;;;;;;20.24;45.11;102396.38;5020944;28;4084;-72
2023/05/03 06:25:19;;;;;;;;;;;;;;;20.47;46.52;102393.72;5019774;28;4015;-72
2023/05/03 06:27:47;;;;;;;;;;;;;;;20.18;44.50;102390.97;5013312;28;4018;-73
2023/05/03 06:30:16;;;;;;;;;;;;;;;19.67;41.86;102402.38;5012948;28;4601;-75
2023/05/03 06:32:45;;;;;;;;;;;;;;;19.49;41.03;102391.63;5016829;28;4041;-75
2023/05/03 06:35:12;;;;;;;;;;;;;;;19.54;39.96;102387.69;5021548;28;4088;-74
2023/05/03 06:37:39;;;;;;;;;;;;;;;19.32;39.08;102390.44;5015153;28;4047;-74
2023/05/03 06:40:06;;;;;;;;;;;;;;;19.25;38.77;102400.69;5017600;28;4125;-74
2023/05/03 06:42:32;;;;;;;;;;;;;;;19.12;38.17;102391.78;5016578;28;4022;-75
2023/05/03 06:45:15;;;;;;;;;;;;;;;19.34;37.97;102398.47;5016364;28;4191;-72
2023/05/03 06:47:41;;;;;;;;;;;;;;;19.39;37.70;102394.53;5015005;28;4218;-72
2023/05/03 06:50:08;;;;;;;;;;;;;;;19.32;37.85;102389.69;5010465;28;4159;-72
2023/05/03 06:52:35;;;;;;;;;;;;;;;19.21;37.01;102397.53;5019827;28;4195;-72
2023/05/03 06:55:01;;;;;;;;;;;;;;;19.25;36.42;102385.59;5011093;28;4138;-73
2023/05/03 06:57:28;;;;;;;;;;;;;;;19.75;37.81;102396.50;5013331;28;3987;-73
2023/05/03 06:59:54;;;;;;;;;;;;;;;20.05;37.70;102395.06;5011074;28;4400;-73
2023/05/03 07:02:21;;;;;;;;;;;;;;;20.20;38.17;102387.47;5015130;28;4133;-74
2023/05/03 07:04:48;;;;;;;;;;;;;;;20.30;39.52;102388.19;5014604;28;4087;-73
2023/05/03 07:07:14;;;;;;;;;;;;;;;20.38;39.22;102390.88;5013028;28;4482;-73
2023/05/03 07:09:41;;;;;;;;;;;;;;;20.40;39.58;102388.91;5016611;28;4074;-73
2023/05/03 07:12:09;;;;;;;;;;;;;;;20.43;39.53;102387.69;5015751;28;4160;-73
2023/05/03 07:14:35;;;;;;;;;;;;;;;20.45;39.90;102387.81;5008667;28;3946;-73
2023/05/03 07:17:02;;;;;;;;;;;;;;;20.44;40.50;102389.19;5016147;28;4006;-72
2023/05/03 07:19:28;;;;;;;;;;;;;;;20.48;40.85;102386.59;5019212;28;4038;-73
2023/05/03 07:21:55;;;;;;;;;;;;;;;20.51;40.93;102394.00;5019466;28;4041;-73
2023/05/03 07:24:23;;;;;;;;;;;;;;;20.54;41.14;102382.63;5019915;28;4115;-73
2023/05/03 07:26:50;;;;;;;;;;;;;;;20.55;41.08;102390.66;5016893;28;4174;-73
2023/05/03 07:29:16;;;;;;;;;;;;;;;20.55;41.74;102389.88;5016939;28;4048;-73
2023/05/03 07:31:43;;;;;;;;;;;;;;;20.56;41.91;102389.31;5011228;28;4055;-73
2023/05/03 07:34:10;;;;;;;;;;;;;;;20.58;41.86;102391.59;5012567;28;4263;-72
2023/05/03 07:36:36;;;;;;;;;;;;;;;20.57;42.17;102392.94;5014207;28;4068;-72
2023/05/03 07:39:03;;;;;;;;;;;;;;;20.59;42.32;102387.31;5015500;28;3949;-72
2023/05/03 07:41:30;;;;;;;;;;;;;;;20.60;42.19;102392.47;5015028;28;4123;-73
2023/05/03 07:43:56;;;;;;;;;;;;;;;20.61;42.43;102390.34;5008375;28;3997;-72
2023/05/03 07:46:23;;;;;;;;;;;;;;;20.62;42.74;102386.13;5017311;28;4207;-71
2023/05/03 07:48:49;;;;;;;;;;;;;;;20.60;43.01;102383.84;5018550;28;4185;-71
2023/05/03 07:51:16;;;;;;;;;;;;;;;20.63;43.09;102393.38;5016964;28;4168;-71
2023/05/03 07:53:43;;;;;;;;;;;;;;;20.64;42.93;102389.91;5015006;28;5140;-71
2023/05/03 07:56:09;;;;;;;;;;;;;;;20.63;43.58;102381.88;5012784;28;4195;-71
2023/05/03 07:58:36;;;;;;;;;;;;;;;20.63;43.79;102381.88;5017433;28;4054;-72
2023/05/03 08:01:06;;;;;;;;;;;;;;;20.65;44.09;102390.66;5013696;28;4116;-71
2023/05/03 08:03:32;;;;;;;;;;;;;;;20.68;44.29;102377.88;5012657;28;4205;-73
2023/05/03 08:05:59;;;;;;;;;;;;;;;20.66;44.62;102375.66;5013815;28;4149;-72
2023/05/03 08:08:26;;;;;;;;;;;;;;;20.68;45.09;102383.66;5011131;28;4129;-72
2023/05/03 08:10:53;;;;;;;;;;;;;;;20.67;45.21;102382.16;5011774;28;4459;-72
2023/05/03 08:13:21;;;;;;;;;;;;;;;20.71;45.43;102379.56;5013819;28;4442;-72
2023/05/03 08:15:48;;;;;;;;;;;;;;;20.73;45.26;102378.91;5008895;28;4530;-71
2023/05/03 08:18:14;;;;;;;;;;;;;;;20.73;45.59;102373.94;5018744;28;4022;-72
2023/05/03 08:20:41;;;;;;;;;;;;;;;20.74;45.69;102375.44;5017696;28;4037;-72
2023/05/03 08:23:07;;;;;;;;;;;;;;;20.73;45.86;102376.81;5010475;28;4557;-71
2023/05/03 08:25:36;;;;;;;;;;;;;;;20.75;45.91;102381.94;5011350;28;4305;-72
2023/05/03 08:28:02;;;;;;;;;;;;;;;20.74;46.20;102381.19;5014494;28;4429;-72
2023/05/03 08:30:29;;;;;;;;;;;;;;;20.74;46.28;102368.94;5011475;28;4016;-72
2023/05/03 08:32:55;;;;;;;;;;;;;;;20.76;46.43;102372.69;5013919;28;5406;-72
2023/05/03 08:35:22;;;;;;;;;;;;;;;20.78;46.48;102372.09;5014161;28;3962;-72
2023/05/03 08:37:48;;;;;;;;;;;;;;;20.80;46.38;102375.88;5012996;28;4083;-72
2023/05/03 08:40:15;;;;;;;;;;;;;;;20.78;46.68;102369.97;5009999;28;4108;-71
2023/05/03 08:42:42;;;;;;;;;;;;;;;20.78;46.80;102381.47;5012683;28;4163;-72
2023/05/03 08:45:08;;;;;;;;;;;;;;;20.79;46.73;102382.97;5011383;28;4111;-72
2023/05/03 08:47:37;;;;;;;;;;;;;;;20.77;46.87;102382.84;5012202;28;3932;-72
2023/05/03 08:50:04;;;;;;;;;;;;;;;20.81;46.65;102391.75;5007707;28;4054;-71
2023/05/03 08:52:30;;;;;;;;;;;;;;;20.81;46.88;102385.25;5009076;28;4062;-72
2023/05/03 08:54:57;;;;;;;;;;;;;;;20.78;47.03;102383.63;5010224;28;4065;-72
2023/05/03 08:57:24;;;;;;;;;;;;;;;20.80;47.05;102389.47;5006640;28;4007;-72
2023/05/03 08:59:53;;;;;;;;;;;;;;;20.77;47.02;102385.72;5010981;28;4280;-72
2023/05/03 09:02:20;;;;;;;;;;;;;;;20.78;47.04;102398.75;5013628;28;3942;-72
2023/05/03 09:04:46;;;;;;;;;;;;;;;20.79;46.89;102400.25;5014584;28;4123;-72
2023/05/03 09:07:14;;;;;;;;;;;;;;;20.79;47.21;102394.50;5010888;28;4312;-72
2023/05/03 09:09:42;;;;;;;;;;;;;;;20.79;47.21;102388.00;5010239;28;4100;-73
2023/05/03 09:12:12;;;;;;;;;;;;;;;20.80;47.07;102395.25;5011963;28;4420;-72
2023/05/03 09:14:42;;;;;;;;;;;;;;;20.78;47.25;102398.75;5015278;28;4225;-72
2023/05/03 09:17:15;;;;;;;;;;;;;;;20.80;47.21;102392.38;5011332;28;4114;-73
2023/05/03 09:19:48;;;;;;;;;;;;;;;20.77;47.22;102400.13;5010922;28;4057;-72
2023/05/03 09:22:15;;;;;;;;;;;;;;;20.80;47.30;102395.25;5011336;28;4025;-72
2023/05/03 09:24:47;;;;;;;;;;;;;;;20.80;47.40;102396.03;5016714;28;4025;-73
2023/05/03 09:27:16;;;;;;;;;;;;;;;20.79;47.48;102390.88;5012011;28;4034;-72
2023/05/03 09:29:43;;;;;;;;;;;;;;;20.80;47.47;102387.38;5014393;28;4009;-72
2023/05/03 09:32:09;;;;;;;;;;;;;;;20.80;47.58;102384.50;5010655;28;4053;-72
2023/05/03 09:34:36;;;;;;;;;;;;;;;20.82;47.54;102387.53;5014025;28;4232;-72
2023/05/03 09:37:02;;;;;;;;;;;;;;;20.82;47.34;102387.53;5000390;28;3961;-72
2023/05/03 09:39:29;;;;;;;;;;;;;;;20.84;47.36;102379.00;5012212;28;5916;-72
2023/05/03 09:41:55;;;;;;;;;;;;;;;20.84;47.32;102379.00;5020122;28;4203;-72
2023/05/03 09:44:38;;;;;;;;;;;;;;;20.84;47.64;102390.53;5011481;28;4165;-72
2023/05/03 09:47:05;;;;;;;;;;;;;;;20.85;47.66;102386.28;5013090;28;4282;-72
2023/05/03 09:49:31;;;;;;;;;;;;;;;20.83;47.63;102377.50;5013687;28;4151;-72
2023/05/03 09:51:58;;;;;;;;;;;;;;;20.85;47.67;102391.28;5014640;28;3963;-72
2023/05/03 09:54:25;;;;;;;;;;;;;;;20.85;47.57;102389.16;5013679;28;4132;-72
2023/05/03 09:56:54;;;;;;;;;;;;;;;20.86;47.63;102384.91;5016173;28;4425;-72
2023/05/03 09:59:20;;;;;;;;;;;;;;;20.85;47.85;102392.03;5015085;28;4042;-72
2023/05/03 10:01:47;;;;;;;;;;;;;;;20.85;47.68;102386.28;5018407;28;5124;-72
2023/05/03 10:04:18;;;;;;;;;;;;;;;20.87;47.64;102382.81;5018638;28;4540;-72
2023/05/03 10:06:46;;;;;;;;;;;;;;;20.77;47.84;102379.22;5015452;28;4078;-73
2023/05/03 10:09:23;;;;;;;;;;;;;;;20.37;44.27;102387.25;5008796;28;4183;-73
2023/05/03 10:11:50;;;;;;;;;;;;;;;20.44;43.95;102385.56;5014259;28;4196;-72
2023/05/03 10:14:17;;;;;;;;;;;;;;;19.77;38.87;102382.28;5016918;28;4138;-71
2023/05/03 10:16:44;;;;;;;;;;;;;;;19.84;37.50;102374.84;5016900;28;5364;-71
2023/05/03 10:19:15;;;;;;;;;;;;;;;19.60;37.33;102377.41;5011812;28;4097;-72
2023/05/03 10:21:47;;;;;;;;;;;;;;;20.00;39.41;102381.03;5015829;28;4138;-73
2023/05/03 10:24:14;;;;;;;;;;;;;;;20.40;42.22;102377.38;5013257;28;4104;-72
2023/05/03 10:26:41;;;;;;;;;;;;;;;20.57;41.90;102385.09;5013197;28;4056;-72
2023/05/03 10:29:26;;;;;;;;;;;;;;;20.59;41.83;102378.69;5009929;28;4155;-72
2023/05/03 10:31:53;;;;;;;;;;;;;;;20.62;42.00;102386.88;5011814;28;4016;-72
2023/05/03 10:34:20;;;;;;;;;;;;;;;20.63;41.99;102382.63;5011261;28;4428;-72
2023/05/03 10:36:49;;;;;;;;;;;;;;;20.64;42.03;102378.38;5010645;28;4000;-71
2023/05/03 10:39:17;;;;;;;;;;;;;;;20.65;42.16;102379.13;5015180;28;4061;-71
2023/05/03 10:41:43;;;;;;;;;;;;;;;20.70;42.40;102386.66;5019964;28;4285;-72
2023/05/03 10:44:26;;;;;;;;;;;;;;;20.71;42.58;102365.91;5021929;28;4162;-71
2023/05/03 10:46:52;;;;;;;;;;;;;;;20.75;42.68;102376.94;5016382;28;4339;-71
2023/05/03 10:49:19;;;;;;;;;;;;;;;20.67;42.83;102373.50;5011123;28;4203;-72
2023/05/03 10:51:46;;;;;;;;;;;;;;;19.83;37.97;102356.84;5014002;28;4335;-73
2023/05/03 10:54:12;;;;;;;;;;;;;;;19.59;36.36;102364.41;5017490;28;4454;-73
2023/05/03 10:56:51;;;;;;;;;;;;;;;19.49;35.63;102363.66;5011132;28;4092;-71
2023/05/03 10:59:18;;;;;;;;;;;;;;;19.99;36.71;102360.13;5014598;28;3990;-70
2023/05/03 11:01:45;;;;;;;;;;;;;;;20.24;37.18;102359.00;5015353;28;4101;-71
2023/05/03 11:04:13;;;;;;;;;;;;;;;20.38;38.58;102362.09;5011319;28;4137;-71
2023/05/03 11:06:40;;;;;;;;;;;;;;;20.44;38.60;102354.66;5014616;28;4197;-71
2023/05/03 11:09:07;;;;;;;;;;;;;;;20.49;38.65;102355.69;5013425;28;4887;-71
2023/05/03 11:11:35;;;;;;;;;;;;;;;20.47;39.08;102344.03;5015950;28;4187;-71
2023/05/03 11:14:02;;;;;;;;;;;;;;;20.47;39.24;102356.31;5009031;28;4140;-72
2023/05/03 11:16:29;;;;;;;;;;;;;;;20.50;39.91;102349.34;5001938;28;4138;-71
2023/05/03 11:18:56;;;;;;;;;;;;;;;20.59;39.87;102358.56;5008924;28;3999;-72
2023/05/03 11:21:22;;;;;;;;;;;;;;;20.44;40.62;102354.66;5009744;28;4468;-68
2023/05/03 11:23:49;;;;;;;;;;;;;;;20.47;40.08;102359.19;5009913;28;3924;-68
2023/05/03 11:26:15;;;;;;;;;;;;;;;20.44;40.47;102354.66;5014220;28;4451;-68
2023/05/03 11:28:42;;;;;;;;;;;;;;;20.49;40.63;102347.81;5009339;28;4139;-68
2023/05/03 11:31:08;;;;;;;;;;;;;;;20.53;40.47;102344.47;5011941;28;4120;-68
2023/05/03 11:33:35;;;;;;;;;;;;;;;20.55;40.42;102338.09;5013781;28;4040;-68
2023/05/03 11:36:08;;;;;;;;;;;;;;;20.53;40.69;102343.72;5012271;28;4090;-69
2023/05/03 11:38:36;;;;;;;;;;;;;;;20.57;40.22;102332.50;5013918;28;4041;-71
2023/05/03 11:41:15;;;;;;;;;;;;;;;20.27;39.03;102335.53;5009406;28;4210;-70
2023/05/03 11:43:45;;;;;;;;;;;;;;;20.14;38.11;102335.28;5013532;28;3865;-67
2023/05/03 11:46:12;;;;;;;;;;;;;;;20.35;39.31;102343.22;5012590;28;3972;-68
2023/05/03 11:48:39;;;;;;;;;;;;;;;20.46;39.27;102323.16;5014526;28;4247;-69
2023/05/03 11:51:06;;;;;;;;;;;;;;;20.55;40.10;102332.31;5009434;28;4490;-66
2023/05/03 11:53:33;;;;;;;;;;;;;;;20.50;40.61;102323.44;5011989;28;4284;-67
2023/05/03 11:56:02;;;;;;;;;;;;;;;20.57;39.56;102318.09;5011628;28;4392;-67
2023/05/03 11:58:28;;;;;;;;;;;;;;;20.60;40.22;102325.53;5007605;28;3973;-68
2023/05/03 12:00:55;;;;;;;;;;;;;;;20.65;40.40;102333.81;5011614;28;4003;-65
2023/05/03 12:03:22;;;;;;;;;;;;;;;20.70;40.55;102335.59;5009476;28;4138;-65
2023/05/03 12:05:55;;;;;;;;;;;;;;;20.78;40.80;102329.66;5012849;28;4166;-66
2023/05/03 12:08:26;;;;;;;;;;;;;;;20.79;40.75;102334.03;5011934;28;4026;-66
2023/05/03 12:10:55;;;;;;;;;;;;;;;20.74;41.13;102329.38;5012891;28;4461;-65
2023/05/03 12:13:29;;;;;;;;;;;;;;;20.80;41.12;102323.25;5010498;28;4831;-65
2023/05/03 12:16:02;;;;;;;;;;;;;;;20.81;41.22;102321.91;5017053;28;4376;-66
2023/05/03 12:19:04;;;;;;;;;;;;;;;20.87;41.34;102320.19;5003665;28;4105;-65
2023/05/03 12:21:43;;;;;;;;;;;;;;;20.90;41.57;102321.84;4968132;28;4270;-65
2023/05/03 12:24:25;;;;;;;;;;;;;;;20.91;41.47;102317.59;5010845;28;4142;-66
2023/05/03 12:26:54;;;;;;;;;;;;;;;20.88;41.14;102318.81;5008547;28;4210;-65
2023/05/03 12:29:23;;;;;;;;;;;;;;;20.85;41.28;102322.94;5007896;28;4009;-65
2023/05/03 12:31:50;;;;;;;;;;;;;;;20.85;41.08;102308.53;5010272;28;4230;-65
2023/05/03 12:34:17;;;;;;;;;;;;;;;20.86;40.94;102318.69;5014967;28;4105;-65
2023/05/03 12:36:46;;;;;;;;;;;;;;;20.86;41.18;102312.16;5008663;28;4150;-65
2023/05/03 12:39:14;;;;;;;;;;;;;;;20.86;41.32;102317.94;5009847;28;4193;-65
2023/05/03 12:41:41;;;;;;;;;;;;;;;20.84;41.35;102318.53;5014368;28;4184;-66
2023/05/03 12:44:28;;;;;;;;;;;;;;;20.85;41.27;102322.94;5014154;28;4250;-65
2023/05/03 12:46:54;;;;;;;;;;;;;;;20.88;41.65;102310.19;5011566;28;4161;-66
2023/05/03 12:49:23;;;;;;;;;;;;;;;20.87;41.51;102320.19;5009797;28;4222;-66
2023/05/03 12:51:49;;;;;;;;;;;;;;;20.86;41.67;102315.78;5012506;28;4410;-66